sensor_id;sensor_type;location;lat;lon;timestamp;P1;durP1;ratioP1;P2;durP2;ratioP2
16973;SDS011;8603;46.944;7.412;2024-01-27T00:00:37;20.40;;;12.87;;
16973;SDS011;8603;46.944;7.412;2024-01-27T00:03:06;18.67;;;12.07;;
16973;SDS011;8603;46.944;7.412;2024-01-27T00:05:32;18.53;;;12.73;;
16973;SDS011;8603;46.944;7.412;2024-01-27T00:08:01;18.07;;;12.23;;
16973;SDS011;8603;46.944;7.412;2024-01-27T00:10:32;19.07;;;12.90;;
16973;SDS011;8603;46.944;7.412;2024-01-27T00:13:01;26.87;;;14.40;;
16973;SDS011;8603;46.944;7.412;2024-01-27T00:15:31;21.87;;;13.07;;
16973;SDS011;8603;46.944;7.412;2024-01-27T00:18:00;15.87;;;10.57;;
16973;SDS011;8603;46.944;7.412;2024-01-27T00:20:29;17.70;;;11.83;;
16973;SDS011;8603;46.944;7.412;2024-01-27T00:23:00;14.37;;;10.43;;
16973;SDS011;8603;46.944;7.412;2024-01-27T00:25:34;14.87;;;9.87;;
16973;SDS011;8603;46.944;7.412;2024-01-27T00:27:59;12.67;;;9.10;;
16973;SDS011;8603;46.944;7.412;2024-01-27T00:30:27;14.57;;;9.30;;
16973;SDS011;8603;46.944;7.412;2024-01-27T00:32:59;14.17;;;9.73;;
16973;SDS011;8603;46.944;7.412;2024-01-27T00:35:39;15.17;;;10.07;;
16973;SDS011;8603;46.944;7.412;2024-01-27T00:38:10;12.80;;;9.33;;
16973;SDS011;8603;46.944;7.412;2024-01-27T00:41:27;13.50;;;9.63;;
16973;SDS011;8603;46.944;7.412;2024-01-27T00:44:04;14.27;;;9.63;;
16973;SDS011;8603;46.944;7.412;2024-01-27T00:46:32;12.70;;;9.43;;
16973;SDS011;8603;46.944;7.412;2024-01-27T00:48:58;14.50;;;9.40;;
16973;SDS011;8603;46.944;7.412;2024-01-27T00:51:28;26.47;;;9.97;;
16973;SDS011;8603;46.944;7.412;2024-01-27T00:53:57;13.37;;;9.23;;
16973;SDS011;8603;46.944;7.412;2024-01-27T00:56:28;15.27;;;9.57;;
16973;SDS011;8603;46.944;7.412;2024-01-27T00:59:01;29.40;;;10.27;;
16973;SDS011;8603;46.944;7.412;2024-01-27T01:01:39;10.90;;;9.23;;
16973;SDS011;8603;46.944;7.412;2024-01-27T01:04:10;14.83;;;9.83;;
16973;SDS011;8603;46.944;7.412;2024-01-27T01:06:38;12.40;;;9.57;;
16973;SDS011;8603;46.944;7.412;2024-01-27T01:09:06;14.00;;;9.23;;
16973;SDS011;8603;46.944;7.412;2024-01-27T01:11:50;13.20;;;9.47;;
16973;SDS011;8603;46.944;7.412;2024-01-27T01:14:21;10.43;;;8.77;;
16973;SDS011;8603;46.944;7.412;2024-01-27T01:16:53;17.53;;;10.80;;
16973;SDS011;8603;46.944;7.412;2024-01-27T01:19:21;14.13;;;10.63;;
16973;SDS011;8603;46.944;7.412;2024-01-27T01:21:47;16.47;;;11.93;;
16973;SDS011;8603;46.944;7.412;2024-01-27T01:24:15;20.73;;;12.57;;
16973;SDS011;8603;46.944;7.412;2024-01-27T01:26:41;18.17;;;12.53;;
16973;SDS011;8603;46.944;7.412;2024-01-27T01:29:14;16.70;;;11.90;;
16973;SDS011;8603;46.944;7.412;2024-01-27T01:31:42;16.10;;;11.83;;
16973;SDS011;8603;46.944;7.412;2024-01-27T01:34:45;10.47;;;8.70;;
16973;SDS011;8603;46.944;7.412;2024-01-27T01:37:33;11.83;;;9.17;;
16973;SDS011;8603;46.944;7.412;2024-01-27T01:40:06;21.80;;;11.47;;
16973;SDS011;8603;46.944;7.412;2024-01-27T01:42:41;14.33;;;10.13;;
16973;SDS011;8603;46.944;7.412;2024-01-27T01:45:09;14.77;;;11.13;;
16973;SDS011;8603;46.944;7.412;2024-01-27T01:47:39;14.83;;;11.17;;
16973;SDS011;8603;46.944;7.412;2024-01-27T01:50:06;12.63;;;9.57;;
16973;SDS011;8603;46.944;7.412;2024-01-27T01:52:37;17.57;;;11.33;;
16973;SDS011;8603;46.944;7.412;2024-01-27T01:55:07;15.33;;;10.90;;
16973;SDS011;8603;46.944;7.412;2024-01-27T01:57:41;17.67;;;11.87;;
16973;SDS011;8603;46.944;7.412;2024-01-27T02:00:09;13.77;;;10.77;;
16973;SDS011;8603;46.944;7.412;2024-01-27T02:02:38;18.67;;;12.30;;
16973;SDS011;8603;46.944;7.412;2024-01-27T02:05:04;16.10;;;11.67;;
16973;SDS011;8603;46.944;7.412;2024-01-27T02:07:37;13.17;;;10.07;;
16973;SDS011;8603;46.944;7.412;2024-01-27T02:10:06;14.30;;;11.10;;
16973;SDS011;8603;46.944;7.412;2024-01-27T02:12:45;13.43;;;10.23;;
16973;SDS011;8603;46.944;7.412;2024-01-27T02:15:13;15.70;;;10.80;;
16973;SDS011;8603;46.944;7.412;2024-01-27T02:17:39;14.50;;;10.67;;
16973;SDS011;8603;46.944;7.412;2024-01-27T02:20:06;17.47;;;10.87;;
16973;SDS011;8603;46.944;7.412;2024-01-27T02:22:33;18.53;;;10.83;;
16973;SDS011;8603;46.944;7.412;2024-01-27T02:25:04;18.23;;;11.50;;
16973;SDS011;8603;46.944;7.412;2024-01-27T02:27:39;21.63;;;11.83;;
16973;SDS011;8603;46.944;7.412;2024-01-27T02:30:10;19.63;;;11.57;;
16973;SDS011;8603;46.944;7.412;2024-01-27T02:36:09;18.60;;;12.10;;
16973;SDS011;8603;46.944;7.412;2024-01-27T02:38:37;20.50;;;12.20;;
16973;SDS011;8603;46.944;7.412;2024-01-27T02:41:04;22.03;;;12.93;;
16973;SDS011;8603;46.944;7.412;2024-01-27T02:43:44;21.53;;;13.50;;
16973;SDS011;8603;46.944;7.412;2024-01-27T02:46:11;23.37;;;13.50;;
16973;SDS011;8603;46.944;7.412;2024-01-27T02:48:43;21.60;;;14.03;;
16973;SDS011;8603;46.944;7.412;2024-01-27T02:51:11;21.53;;;13.80;;
16973;SDS011;8603;46.944;7.412;2024-01-27T02:53:37;22.67;;;15.20;;
16973;SDS011;8603;46.944;7.412;2024-01-27T02:56:06;23.07;;;14.50;;
16973;SDS011;8603;46.944;7.412;2024-01-27T02:58:32;24.90;;;15.00;;
16973;SDS011;8603;46.944;7.412;2024-01-27T03:00:58;17.33;;;12.77;;
16973;SDS011;8603;46.944;7.412;2024-01-27T03:03:26;18.70;;;13.90;;
16973;SDS011;8603;46.944;7.412;2024-01-27T03:05:52;20.70;;;14.07;;
16973;SDS011;8603;46.944;7.412;2024-01-27T03:08:23;20.90;;;14.77;;
16973;SDS011;8603;46.944;7.412;2024-01-27T03:10:48;20.63;;;14.40;;
16973;SDS011;8603;46.944;7.412;2024-01-27T03:13:14;22.07;;;13.80;;
16973;SDS011;8603;46.944;7.412;2024-01-27T03:15:40;18.77;;;13.03;;
16973;SDS011;8603;46.944;7.412;2024-01-27T03:18:10;17.77;;;13.63;;
16973;SDS011;8603;46.944;7.412;2024-01-27T03:20:38;19.23;;;13.63;;
16973;SDS011;8603;46.944;7.412;2024-01-27T03:23:05;19.27;;;13.33;;
16973;SDS011;8603;46.944;7.412;2024-01-27T03:25:31;18.57;;;12.47;;
16973;SDS011;8603;46.944;7.412;2024-01-27T03:27:57;15.73;;;11.67;;
16973;SDS011;8603;46.944;7.412;2024-01-27T03:30:28;17.97;;;12.33;;
16973;SDS011;8603;46.944;7.412;2024-01-27T03:33:03;18.20;;;12.20;;
16973;SDS011;8603;46.944;7.412;2024-01-27T03:35:31;17.30;;;12.40;;
16973;SDS011;8603;46.944;7.412;2024-01-27T03:37:57;18.77;;;13.43;;
16973;SDS011;8603;46.944;7.412;2024-01-27T03:40:22;19.73;;;13.57;;
16973;SDS011;8603;46.944;7.412;2024-01-27T03:42:48;15.37;;;11.73;;
16973;SDS011;8603;46.944;7.412;2024-01-27T03:45:13;16.60;;;11.67;;
16973;SDS011;8603;46.944;7.412;2024-01-27T03:47:42;16.33;;;10.97;;
16973;SDS011;8603;46.944;7.412;2024-01-27T03:50:10;16.53;;;11.80;;
16973;SDS011;8603;46.944;7.412;2024-01-27T03:52:41;15.73;;;11.40;;
16973;SDS011;8603;46.944;7.412;2024-01-27T03:55:07;16.50;;;11.10;;
16973;SDS011;8603;46.944;7.412;2024-01-27T03:57:36;16.47;;;10.83;;
16973;SDS011;8603;46.944;7.412;2024-01-27T04:00:02;15.60;;;11.33;;
16973;SDS011;8603;46.944;7.412;2024-01-27T04:02:35;14.67;;;10.40;;
16973;SDS011;8603;46.944;7.412;2024-01-27T04:05:10;12.67;;;9.13;;
16973;SDS011;8603;46.944;7.412;2024-01-27T04:07:41;11.00;;;8.50;;
16973;SDS011;8603;46.944;7.412;2024-01-27T04:10:07;9.30;;;7.13;;
16973;SDS011;8603;46.944;7.412;2024-01-27T04:12:35;8.43;;;6.87;;
16973;SDS011;8603;46.944;7.412;2024-01-27T04:15:03;8.10;;;6.33;;
16973;SDS011;8603;46.944;7.412;2024-01-27T04:17:35;7.40;;;6.03;;
16973;SDS011;8603;46.944;7.412;2024-01-27T04:20:02;9.97;;;6.17;;
16973;SDS011;8603;46.944;7.412;2024-01-27T04:22:28;6.80;;;5.60;;
16973;SDS011;8603;46.944;7.412;2024-01-27T04:24:53;7.03;;;5.73;;
16973;SDS011;8603;46.944;7.412;2024-01-27T04:27:19;6.70;;;5.50;;
16973;SDS011;8603;46.944;7.412;2024-01-27T04:29:45;8.93;;;5.20;;
16973;SDS011;8603;46.944;7.412;2024-01-27T04:32:14;7.20;;;5.50;;
16973;SDS011;8603;46.944;7.412;2024-01-27T04:34:40;5.13;;;4.50;;
16973;SDS011;8603;46.944;7.412;2024-01-27T04:37:05;5.87;;;4.43;;
16973;SDS011;8603;46.944;7.412;2024-01-27T04:39:31;5.07;;;4.50;;
16973;SDS011;8603;46.944;7.412;2024-01-27T04:41:57;4.10;;;3.70;;
16973;SDS011;8603;46.944;7.412;2024-01-27T04:44:22;4.00;;;3.60;;
16973;SDS011;8603;46.944;7.412;2024-01-27T04:46:48;3.83;;;3.43;;
16973;SDS011;8603;46.944;7.412;2024-01-27T04:49:16;4.23;;;3.30;;
16973;SDS011;8603;46.944;7.412;2024-01-27T04:51:42;4.37;;;3.50;;
16973;SDS011;8603;46.944;7.412;2024-01-27T04:54:08;3.43;;;3.00;;
16973;SDS011;8603;46.944;7.412;2024-01-27T04:56:34;3.60;;;3.00;;
16973;SDS011;8603;46.944;7.412;2024-01-27T04:59:00;3.83;;;2.90;;
16973;SDS011;8603;46.944;7.412;2024-01-27T05:01:25;3.73;;;3.03;;
16973;SDS011;8603;46.944;7.412;2024-01-27T05:03:56;3.07;;;2.67;;
16973;SDS011;8603;46.944;7.412;2024-01-27T05:06:25;4.73;;;2.80;;
16973;SDS011;8603;46.944;7.412;2024-01-27T05:08:50;3.33;;;2.90;;
16973;SDS011;8603;46.944;7.412;2024-01-27T05:11:28;3.43;;;3.13;;
16973;SDS011;8603;46.944;7.412;2024-01-27T05:13:56;4.70;;;3.20;;
16973;SDS011;8603;46.944;7.412;2024-01-27T05:16:21;3.20;;;2.90;;
16973;SDS011;8603;46.944;7.412;2024-01-27T05:18:47;3.63;;;3.20;;
16973;SDS011;8603;46.944;7.412;2024-01-27T05:21:13;4.23;;;2.80;;
16973;SDS011;8603;46.944;7.412;2024-01-27T05:23:39;3.53;;;3.13;;
16973;SDS011;8603;46.944;7.412;2024-01-27T05:26:05;3.53;;;2.97;;
16973;SDS011;8603;46.944;7.412;2024-01-27T05:28:31;4.23;;;3.00;;
16973;SDS011;8603;46.944;7.412;2024-01-27T05:30:57;3.90;;;3.50;;
16973;SDS011;8603;46.944;7.412;2024-01-27T05:33:25;4.77;;;3.23;;
16973;SDS011;8603;46.944;7.412;2024-01-27T05:35:53;3.30;;;2.90;;
16973;SDS011;8603;46.944;7.412;2024-01-27T05:38:18;3.40;;;2.87;;
16973;SDS011;8603;46.944;7.412;2024-01-27T05:40:44;3.07;;;2.77;;
16973;SDS011;8603;46.944;7.412;2024-01-27T05:43:10;4.00;;;2.90;;
16973;SDS011;8603;46.944;7.412;2024-01-27T05:45:35;5.00;;;3.40;;
16973;SDS011;8603;46.944;7.412;2024-01-27T05:48:01;3.23;;;2.90;;
16973;SDS011;8603;46.944;7.412;2024-01-27T05:50:27;4.97;;;3.03;;
16973;SDS011;8603;46.944;7.412;2024-01-27T05:52:55;5.83;;;3.27;;
16973;SDS011;8603;46.944;7.412;2024-01-27T05:55:22;5.00;;;3.17;;
16973;SDS011;8603;46.944;7.412;2024-01-27T05:57:50;5.07;;;3.00;;
16973;SDS011;8603;46.944;7.412;2024-01-27T06:00:20;3.17;;;2.67;;
16973;SDS011;8603;46.944;7.412;2024-01-27T06:02:46;4.10;;;2.80;;
16973;SDS011;8603;46.944;7.412;2024-01-27T06:05:14;3.10;;;2.80;;
16973;SDS011;8603;46.944;7.412;2024-01-27T06:07:40;3.80;;;2.20;;
16973;SDS011;8603;46.944;7.412;2024-01-27T06:10:08;6.00;;;2.60;;
16973;SDS011;8603;46.944;7.412;2024-01-27T06:12:34;3.70;;;2.43;;
16973;SDS011;8603;46.944;7.412;2024-01-27T06:15:08;4.20;;;2.60;;
16973;SDS011;8603;46.944;7.412;2024-01-27T06:17:36;4.13;;;2.70;;
16973;SDS011;8603;46.944;7.412;2024-01-27T06:20:02;3.93;;;2.50;;
16973;SDS011;8603;46.944;7.412;2024-01-27T06:22:28;4.20;;;2.60;;
16973;SDS011;8603;46.944;7.412;2024-01-27T06:24:56;6.23;;;2.57;;
16973;SDS011;8603;46.944;7.412;2024-01-27T06:27:21;4.57;;;2.40;;
16973;SDS011;8603;46.944;7.412;2024-01-27T06:29:47;7.60;;;2.70;;
16973;SDS011;8603;46.944;7.412;2024-01-27T06:32:15;5.97;;;2.60;;
16973;SDS011;8603;46.944;7.412;2024-01-27T06:34:44;7.37;;;3.20;;
16973;SDS011;8603;46.944;7.412;2024-01-27T06:37:12;5.10;;;2.90;;
16973;SDS011;8603;46.944;7.412;2024-01-27T06:39:38;9.07;;;3.07;;
16973;SDS011;8603;46.944;7.412;2024-01-27T06:42:04;4.67;;;2.70;;
16973;SDS011;8603;46.944;7.412;2024-01-27T06:44:29;5.80;;;3.13;;
16973;SDS011;8603;46.944;7.412;2024-01-27T06:46:55;6.27;;;3.10;;
16973;SDS011;8603;46.944;7.412;2024-01-27T06:49:21;6.30;;;3.30;;
16973;SDS011;8603;46.944;7.412;2024-01-27T06:51:49;6.07;;;3.13;;
16973;SDS011;8603;46.944;7.412;2024-01-27T06:54:14;5.43;;;3.33;;
16973;SDS011;8603;46.944;7.412;2024-01-27T06:56:40;4.83;;;3.20;;
16973;SDS011;8603;46.944;7.412;2024-01-27T06:59:05;5.57;;;3.30;;
16973;SDS011;8603;46.944;7.412;2024-01-27T07:01:31;4.30;;;3.17;;
16973;SDS011;8603;46.944;7.412;2024-01-27T07:03:57;5.73;;;3.53;;
16973;SDS011;8603;46.944;7.412;2024-01-27T07:06:22;6.93;;;4.00;;
16973;SDS011;8603;46.944;7.412;2024-01-27T07:08:48;10.90;;;3.57;;
16973;SDS011;8603;46.944;7.412;2024-01-27T07:11:14;8.13;;;4.20;;
16973;SDS011;8603;46.944;7.412;2024-01-27T07:13:40;7.17;;;3.50;;
16973;SDS011;8603;46.944;7.412;2024-01-27T07:16:06;5.97;;;3.20;;
16973;SDS011;8603;46.944;7.412;2024-01-27T07:18:35;8.17;;;3.53;;
16973;SDS011;8603;46.944;7.412;2024-01-27T07:21:01;6.77;;;3.10;;
16973;SDS011;8603;46.944;7.412;2024-01-27T07:23:27;9.77;;;3.10;;
16973;SDS011;8603;46.944;7.412;2024-01-27T07:25:53;8.20;;;3.20;;
16973;SDS011;8603;46.944;7.412;2024-01-27T07:28:19;6.20;;;2.67;;
16973;SDS011;8603;46.944;7.412;2024-01-27T07:30:45;5.63;;;2.80;;
16973;SDS011;8603;46.944;7.412;2024-01-27T07:33:10;7.93;;;2.80;;
16973;SDS011;8603;46.944;7.412;2024-01-27T07:35:36;6.33;;;2.53;;
16973;SDS011;8603;46.944;7.412;2024-01-27T07:38:05;7.47;;;2.50;;
16973;SDS011;8603;46.944;7.412;2024-01-27T07:40:31;3.87;;;2.30;;
16973;SDS011;8603;46.944;7.412;2024-01-27T07:42:56;5.80;;;2.40;;
16973;SDS011;8603;46.944;7.412;2024-01-27T07:45:22;6.40;;;2.83;;
16973;SDS011;8603;46.944;7.412;2024-01-27T07:47:47;4.20;;;2.57;;
16973;SDS011;8603;46.944;7.412;2024-01-27T07:50:13;4.10;;;2.37;;
16973;SDS011;8603;46.944;7.412;2024-01-27T07:52:39;7.70;;;2.50;;
16973;SDS011;8603;46.944;7.412;2024-01-27T07:55:04;3.67;;;2.20;;
16973;SDS011;8603;46.944;7.412;2024-01-27T07:57:30;4.80;;;2.47;;
16973;SDS011;8603;46.944;7.412;2024-01-27T07:59:57;5.60;;;2.30;;
16973;SDS011;8603;46.944;7.412;2024-01-27T08:02:22;6.43;;;2.30;;
16973;SDS011;8603;46.944;7.412;2024-01-27T08:04:48;4.80;;;2.37;;
16973;SDS011;8603;46.944;7.412;2024-01-27T08:07:13;3.87;;;2.20;;
16973;SDS011;8603;46.944;7.412;2024-01-27T08:09:41;5.97;;;2.17;;
16973;SDS011;8603;46.944;7.412;2024-01-27T08:12:12;4.33;;;2.30;;
16973;SDS011;8603;46.944;7.412;2024-01-27T08:14:38;5.57;;;2.30;;
16973;SDS011;8603;46.944;7.412;2024-01-27T08:17:07;4.13;;;2.20;;
16973;SDS011;8603;46.944;7.412;2024-01-27T08:19:36;3.73;;;2.10;;
16973;SDS011;8603;46.944;7.412;2024-01-27T08:22:02;5.43;;;2.37;;
16973;SDS011;8603;46.944;7.412;2024-01-27T08:24:28;7.67;;;2.80;;
16973;SDS011;8603;46.944;7.412;2024-01-27T08:26:57;4.60;;;2.30;;
16973;SDS011;8603;46.944;7.412;2024-01-27T08:29:27;5.63;;;2.53;;
16973;SDS011;8603;46.944;7.412;2024-01-27T08:31:52;5.80;;;2.50;;
16973;SDS011;8603;46.944;7.412;2024-01-27T08:34:30;7.53;;;2.70;;
16973;SDS011;8603;46.944;7.412;2024-01-27T08:37:01;5.33;;;2.40;;
16973;SDS011;8603;46.944;7.412;2024-01-27T08:39:30;6.30;;;2.40;;
16973;SDS011;8603;46.944;7.412;2024-01-27T08:41:55;4.23;;;2.30;;
16973;SDS011;8603;46.944;7.412;2024-01-27T08:44:21;4.53;;;2.33;;
16973;SDS011;8603;46.944;7.412;2024-01-27T08:46:48;4.60;;;2.03;;
16973;SDS011;8603;46.944;7.412;2024-01-27T08:49:16;4.93;;;2.30;;
16973;SDS011;8603;46.944;7.412;2024-01-27T08:51:42;5.60;;;2.50;;
16973;SDS011;8603;46.944;7.412;2024-01-27T08:54:07;3.57;;;2.20;;
16973;SDS011;8603;46.944;7.412;2024-01-27T08:56:33;3.80;;;2.30;;
16973;SDS011;8603;46.944;7.412;2024-01-27T08:58:58;5.07;;;2.57;;
16973;SDS011;8603;46.944;7.412;2024-01-27T09:01:24;3.83;;;2.10;;
16973;SDS011;8603;46.944;7.412;2024-01-27T09:03:49;5.60;;;3.00;;
16973;SDS011;8603;46.944;7.412;2024-01-27T09:06:15;3.57;;;2.10;;
16973;SDS011;8603;46.944;7.412;2024-01-27T09:08:41;5.57;;;2.63;;
16973;SDS011;8603;46.944;7.412;2024-01-27T09:11:07;3.73;;;2.57;;
16973;SDS011;8603;46.944;7.412;2024-01-27T09:13:38;3.73;;;2.20;;
16973;SDS011;8603;46.944;7.412;2024-01-27T09:16:03;5.17;;;2.40;;
16973;SDS011;8603;46.944;7.412;2024-01-27T09:18:29;4.67;;;3.00;;
16973;SDS011;8603;46.944;7.412;2024-01-27T09:20:55;4.77;;;2.53;;
16973;SDS011;8603;46.944;7.412;2024-01-27T09:23:23;4.57;;;2.40;;
16973;SDS011;8603;46.944;7.412;2024-01-27T09:25:48;5.33;;;2.77;;
16973;SDS011;8603;46.944;7.412;2024-01-27T09:28:14;6.60;;;2.50;;
16973;SDS011;8603;46.944;7.412;2024-01-27T09:30:40;7.53;;;2.60;;
16973;SDS011;8603;46.944;7.412;2024-01-27T09:33:06;3.93;;;2.50;;
16973;SDS011;8603;46.944;7.412;2024-01-27T09:35:32;4.53;;;2.43;;
16973;SDS011;8603;46.944;7.412;2024-01-27T09:38:01;7.33;;;2.67;;
16973;SDS011;8603;46.944;7.412;2024-01-27T09:40:26;3.47;;;2.40;;
16973;SDS011;8603;46.944;7.412;2024-01-27T09:42:53;5.80;;;2.73;;
16973;SDS011;8603;46.944;7.412;2024-01-27T09:45:23;4.43;;;2.60;;
16973;SDS011;8603;46.944;7.412;2024-01-27T09:47:49;4.13;;;2.83;;
16973;SDS011;8603;46.944;7.412;2024-01-27T09:50:17;4.50;;;2.60;;
16973;SDS011;8603;46.944;7.412;2024-01-27T09:52:43;5.23;;;2.40;;
16973;SDS011;8603;46.944;7.412;2024-01-27T09:55:09;5.10;;;3.23;;
16973;SDS011;8603;46.944;7.412;2024-01-27T09:57:38;3.80;;;2.33;;
16973;SDS011;8603;46.944;7.412;2024-01-27T10:00:05;5.77;;;2.73;;
16973;SDS011;8603;46.944;7.412;2024-01-27T10:02:34;3.77;;;2.40;;
16973;SDS011;8603;46.944;7.412;2024-01-27T10:05:05;5.90;;;2.80;;
16973;SDS011;8603;46.944;7.412;2024-01-27T10:07:32;5.03;;;2.83;;
16973;SDS011;8603;46.944;7.412;2024-01-27T10:09:57;5.37;;;2.50;;
16973;SDS011;8603;46.944;7.412;2024-01-27T10:12:23;4.87;;;3.13;;
16973;SDS011;8603;46.944;7.412;2024-01-27T10:14:51;7.17;;;3.13;;
16973;SDS011;8603;46.944;7.412;2024-01-27T10:17:21;4.50;;;2.93;;
16973;SDS011;8603;46.944;7.412;2024-01-27T10:19:58;6.77;;;3.10;;
16973;SDS011;8603;46.944;7.412;2024-01-27T10:22:26;5.17;;;2.60;;
16973;SDS011;8603;46.944;7.412;2024-01-27T10:25:04;5.13;;;2.83;;
16973;SDS011;8603;46.944;7.412;2024-01-27T10:27:31;5.37;;;2.93;;
16973;SDS011;8603;46.944;7.412;2024-01-27T10:29:56;5.83;;;2.83;;
16973;SDS011;8603;46.944;7.412;2024-01-27T10:32:22;5.70;;;3.17;;
16973;SDS011;8603;46.944;7.412;2024-01-27T10:35:06;4.10;;;2.93;;
16973;SDS011;8603;46.944;7.412;2024-01-27T10:37:35;4.70;;;3.13;;
16973;SDS011;8603;46.944;7.412;2024-01-27T10:42:31;5.67;;;2.93;;
16973;SDS011;8603;46.944;7.412;2024-01-27T10:44:57;5.73;;;2.83;;
16973;SDS011;8603;46.944;7.412;2024-01-27T10:47:27;4.63;;;3.13;;
16973;SDS011;8603;46.944;7.412;2024-01-27T10:49:58;6.03;;;2.97;;
16973;SDS011;8603;46.944;7.412;2024-01-27T10:52:33;5.00;;;3.17;;
16973;SDS011;8603;46.944;7.412;2024-01-27T10:55:04;6.87;;;2.90;;
16973;SDS011;8603;46.944;7.412;2024-01-27T10:57:35;7.73;;;3.47;;
16973;SDS011;8603;46.944;7.412;2024-01-27T11:00:04;5.20;;;3.30;;
16973;SDS011;8603;46.944;7.412;2024-01-27T11:02:32;7.10;;;3.13;;
16973;SDS011;8603;46.944;7.412;2024-01-27T11:05:05;6.07;;;3.00;;
16973;SDS011;8603;46.944;7.412;2024-01-27T11:08:09;3.90;;;3.27;;
16973;SDS011;8603;46.944;7.412;2024-01-27T11:10:37;3.03;;;2.63;;
16973;SDS011;8603;46.944;7.412;2024-01-27T11:13:25;5.20;;;3.20;;
16973;SDS011;8603;46.944;7.412;2024-01-27T11:15:59;6.13;;;3.10;;
16973;SDS011;8603;46.944;7.412;2024-01-27T11:18:25;5.50;;;3.07;;
16973;SDS011;8603;46.944;7.412;2024-01-27T11:20:55;4.97;;;3.00;;
16973;SDS011;8603;46.944;7.412;2024-01-27T11:23:35;4.30;;;2.63;;
16973;SDS011;8603;46.944;7.412;2024-01-27T11:26:16;3.70;;;2.60;;
16973;SDS011;8603;46.944;7.412;2024-01-27T11:29:05;3.67;;;2.70;;
16973;SDS011;8603;46.944;7.412;2024-01-27T11:31:32;4.33;;;3.30;;
16973;SDS011;8603;46.944;7.412;2024-01-27T11:33:58;4.10;;;3.00;;
16973;SDS011;8603;46.944;7.412;2024-01-27T11:36:24;3.83;;;3.00;;
16973;SDS011;8603;46.944;7.412;2024-01-27T11:42:17;9.03;;;3.10;;
16973;SDS011;8603;46.944;7.412;2024-01-27T11:44:45;4.57;;;3.03;;
16973;SDS011;8603;46.944;7.412;2024-01-27T11:47:20;6.83;;;3.23;;
16973;SDS011;8603;46.944;7.412;2024-01-27T11:50:04;5.03;;;3.27;;
16973;SDS011;8603;46.944;7.412;2024-01-27T11:52:30;3.67;;;3.07;;
16973;SDS011;8603;46.944;7.412;2024-01-27T11:54:59;2.83;;;2.40;;
16973;SDS011;8603;46.944;7.412;2024-01-27T11:57:34;3.80;;;2.50;;
16973;SDS011;8603;46.944;7.412;2024-01-27T12:00:00;4.33;;;2.60;;
16973;SDS011;8603;46.944;7.412;2024-01-27T12:05:25;3.20;;;2.73;;
16973;SDS011;8603;46.944;7.412;2024-01-27T12:11:15;3.50;;;2.83;;
16973;SDS011;8603;46.944;7.412;2024-01-27T12:13:44;3.60;;;2.90;;
16973;SDS011;8603;46.944;7.412;2024-01-27T12:16:10;4.30;;;3.90;;
16973;SDS011;8603;46.944;7.412;2024-01-27T12:18:36;3.33;;;2.63;;
16973;SDS011;8603;46.944;7.412;2024-01-27T12:21:02;2.80;;;2.50;;
16973;SDS011;8603;46.944;7.412;2024-01-27T12:23:27;3.77;;;3.00;;
16973;SDS011;8603;46.944;7.412;2024-01-27T12:25:53;4.03;;;3.13;;
16973;SDS011;8603;46.944;7.412;2024-01-27T12:28:23;3.17;;;2.70;;
16973;SDS011;8603;46.944;7.412;2024-01-27T12:30:52;5.00;;;3.00;;
16973;SDS011;8603;46.944;7.412;2024-01-27T12:33:21;4.53;;;3.50;;
16973;SDS011;8603;46.944;7.412;2024-01-27T12:35:50;4.90;;;3.23;;
16973;SDS011;8603;46.944;7.412;2024-01-27T12:38:19;3.60;;;3.30;;
16973;SDS011;8603;46.944;7.412;2024-01-27T12:40:47;4.40;;;2.80;;
16973;SDS011;8603;46.944;7.412;2024-01-27T12:43:13;4.83;;;3.43;;
16973;SDS011;8603;46.944;7.412;2024-01-27T12:45:40;3.93;;;3.27;;
16973;SDS011;8603;46.944;7.412;2024-01-27T12:48:06;3.80;;;3.00;;
16973;SDS011;8603;46.944;7.412;2024-01-27T12:50:37;6.73;;;2.83;;
16973;SDS011;8603;46.944;7.412;2024-01-27T12:53:03;5.03;;;2.90;;
16973;SDS011;8603;46.944;7.412;2024-01-27T12:55:29;3.73;;;3.03;;
16973;SDS011;8603;46.944;7.412;2024-01-27T12:57:54;4.80;;;3.07;;
16973;SDS011;8603;46.944;7.412;2024-01-27T13:00:20;4.97;;;2.87;;
16973;SDS011;8603;46.944;7.412;2024-01-27T13:02:46;3.87;;;3.00;;
16973;SDS011;8603;46.944;7.412;2024-01-27T13:05:12;5.17;;;3.27;;
16973;SDS011;8603;46.944;7.412;2024-01-27T13:07:38;4.63;;;3.10;;
16973;SDS011;8603;46.944;7.412;2024-01-27T13:10:04;6.00;;;3.20;;
16973;SDS011;8603;46.944;7.412;2024-01-27T13:12:30;4.07;;;3.00;;
16973;SDS011;8603;46.944;7.412;2024-01-27T13:14:56;3.10;;;2.80;;
16973;SDS011;8603;46.944;7.412;2024-01-27T13:17:21;5.70;;;3.40;;
16973;SDS011;8603;46.944;7.412;2024-01-27T13:19:47;6.07;;;3.37;;
16973;SDS011;8603;46.944;7.412;2024-01-27T13:22:13;5.40;;;3.13;;
16973;SDS011;8603;46.944;7.412;2024-01-27T13:24:42;4.47;;;3.50;;
16973;SDS011;8603;46.944;7.412;2024-01-27T13:27:13;4.27;;;3.57;;
16973;SDS011;8603;46.944;7.412;2024-01-27T13:29:42;3.43;;;2.67;;
16973;SDS011;8603;46.944;7.412;2024-01-27T13:32:10;3.23;;;2.63;;
16973;SDS011;8603;46.944;7.412;2024-01-27T13:34:42;3.90;;;2.50;;
16973;SDS011;8603;46.944;7.412;2024-01-27T13:37:33;3.47;;;3.00;;
16973;SDS011;8603;46.944;7.412;2024-01-27T13:39:59;4.07;;;3.30;;
16973;SDS011;8603;46.944;7.412;2024-01-27T13:42:28;3.57;;;3.23;;
16973;SDS011;8603;46.944;7.412;2024-01-27T13:44:54;3.83;;;3.30;;
16973;SDS011;8603;46.944;7.412;2024-01-27T13:47:22;4.90;;;3.27;;
16973;SDS011;8603;46.944;7.412;2024-01-27T13:49:57;18.20;;;10.17;;
16973;SDS011;8603;46.944;7.412;2024-01-27T13:52:45;4.50;;;3.60;;
16973;SDS011;8603;46.944;7.412;2024-01-27T13:55:16;6.53;;;3.50;;
16973;SDS011;8603;46.944;7.412;2024-01-27T14:01:11;4.17;;;3.40;;
16973;SDS011;8603;46.944;7.412;2024-01-27T14:03:56;4.07;;;3.03;;
16973;SDS011;8603;46.944;7.412;2024-01-27T14:06:25;4.13;;;3.10;;
16973;SDS011;8603;46.944;7.412;2024-01-27T14:08:51;4.60;;;3.30;;
16973;SDS011;8603;46.944;7.412;2024-01-27T14:11:19;3.40;;;3.10;;
16973;SDS011;8603;46.944;7.412;2024-01-27T14:13:48;3.80;;;3.43;;
16973;SDS011;8603;46.944;7.412;2024-01-27T14:16:23;5.13;;;3.53;;
16973;SDS011;8603;46.944;7.412;2024-01-27T14:18:58;3.87;;;3.13;;
16973;SDS011;8603;46.944;7.412;2024-01-27T14:21:29;7.03;;;3.37;;
16973;SDS011;8603;46.944;7.412;2024-01-27T14:24:00;4.30;;;3.10;;
16973;SDS011;8603;46.944;7.412;2024-01-27T14:26:29;5.07;;;3.20;;
16973;SDS011;8603;46.944;7.412;2024-01-27T14:29:00;5.03;;;3.57;;
16973;SDS011;8603;46.944;7.412;2024-01-27T14:32:05;4.63;;;3.50;;
16973;SDS011;8603;46.944;7.412;2024-01-27T14:34:32;3.90;;;3.50;;
16973;SDS011;8603;46.944;7.412;2024-01-27T14:37:05;5.43;;;3.47;;
16973;SDS011;8603;46.944;7.412;2024-01-27T14:39:52;4.47;;;3.67;;
16973;SDS011;8603;46.944;7.412;2024-01-27T14:42:22;4.20;;;3.80;;
16973;SDS011;8603;46.944;7.412;2024-01-27T14:45:10;4.50;;;3.40;;
16973;SDS011;8603;46.944;7.412;2024-01-27T14:47:39;4.03;;;3.40;;
16973;SDS011;8603;46.944;7.412;2024-01-27T14:52:56;4.47;;;3.77;;
16973;SDS011;8603;46.944;7.412;2024-01-27T14:55:23;3.80;;;3.13;;
16973;SDS011;8603;46.944;7.412;2024-01-27T14:57:53;4.27;;;3.20;;
16973;SDS011;8603;46.944;7.412;2024-01-27T15:00:21;4.63;;;3.60;;
16973;SDS011;8603;46.944;7.412;2024-01-27T15:05:21;4.20;;;3.40;;
16973;SDS011;8603;46.944;7.412;2024-01-27T15:07:47;4.93;;;3.77;;
16973;SDS011;8603;46.944;7.412;2024-01-27T15:10:13;4.13;;;3.63;;
16973;SDS011;8603;46.944;7.412;2024-01-27T15:12:38;6.77;;;4.33;;
16973;SDS011;8603;46.944;7.412;2024-01-27T15:15:04;5.43;;;4.30;;
16973;SDS011;8603;46.944;7.412;2024-01-27T15:17:31;4.40;;;3.97;;
16973;SDS011;8603;46.944;7.412;2024-01-27T15:19:57;5.30;;;4.20;;
16973;SDS011;8603;46.944;7.412;2024-01-27T15:22:23;6.23;;;3.77;;
16973;SDS011;8603;46.944;7.412;2024-01-27T15:24:49;5.73;;;4.07;;
16973;SDS011;8603;46.944;7.412;2024-01-27T15:27:18;5.77;;;4.10;;
16973;SDS011;8603;46.944;7.412;2024-01-27T15:29:44;4.77;;;4.27;;